sensor_id;sensor_type;location;lat;lon;timestamp;temperature;humidity
29321;DHT22;16323;51.130;6.612;2022-11-18T00:01:24;19.10;77.50
29321;DHT22;16323;51.130;6.612;2022-11-18T00:03:52;19.00;77.40
29321;DHT22;16323;51.130;6.612;2022-11-18T00:06:21;19.10;77.50
29321;DHT22;16323;51.130;6.612;2022-11-18T00:08:58;19.00;77.40
29321;DHT22;16323;51.130;6.612;2022-11-18T00:11:26;19.10;77.50
29321;DHT22;16323;51.130;6.612;2022-11-18T00:14:32;19.10;77.50
29321;DHT22;16323;51.130;6.612;2022-11-18T00:17:12;19.10;77.50
29321;DHT22;16323;51.130;6.612;2022-11-18T00:22:44;19.10;77.50
29321;DHT22;16323;51.130;6.612;2022-11-18T00:25:29;19.10;77.60
29321;DHT22;16323;51.130;6.612;2022-11-18T00:27:56;19.10;77.50
29321;DHT22;16323;51.130;6.612;2022-11-18T00:30:33;19.10;77.50
29321;DHT22;16323;51.130;6.612;2022-11-18T00:33:24;19.10;79.20
29321;DHT22;16323;51.130;6.612;2022-11-18T00:35:53;19.10;78.10
29321;DHT22;16323;51.130;6.612;2022-11-18T00:38:22;19.10;78.00
29321;DHT22;16323;51.130;6.612;2022-11-18T00:41:00;19.10;77.90
29321;DHT22;16323;51.130;6.612;2022-11-18T00:43:27;19.00;77.70
29321;DHT22;16323;51.130;6.612;2022-11-18T00:45:55;19.10;77.80
29321;DHT22;16323;51.130;6.612;2022-11-18T00:48:22;19.00;77.80
29321;DHT22;16323;51.130;6.612;2022-11-18T00:51:14;19.00;77.40
29321;DHT22;16323;51.130;6.612;2022-11-18T00:53:53;19.00;77.60
29321;DHT22;16323;51.130;6.612;2022-11-18T00:56:38;19.00;77.40
29321;DHT22;16323;51.130;6.612;2022-11-18T00:59:04;19.00;77.50
29321;DHT22;16323;51.130;6.612;2022-11-18T01:01:51;19.00;77.40
29321;DHT22;16323;51.130;6.612;2022-11-18T01:04:29;19.00;77.50
29321;DHT22;16323;51.130;6.612;2022-11-18T01:06:58;19.00;77.60
29321;DHT22;16323;51.130;6.612;2022-11-18T01:09:37;19.00;77.50
29321;DHT22;16323;51.130;6.612;2022-11-18T01:12:04;19.00;77.40
29321;DHT22;16323;51.130;6.612;2022-11-18T01:15:01;19.00;77.50
29321;DHT22;16323;51.130;6.612;2022-11-18T01:17:29;19.00;77.40
29321;DHT22;16323;51.130;6.612;2022-11-18T01:20:10;19.00;77.40
29321;DHT22;16323;51.130;6.612;2022-11-18T01:22:50;19.00;77.40
29321;DHT22;16323;51.130;6.612;2022-11-18T01:25:19;19.00;77.40
29321;DHT22;16323;51.130;6.612;2022-11-18T01:27:56;19.00;77.40
29321;DHT22;16323;51.130;6.612;2022-11-18T01:30:44;19.00;77.40
29321;DHT22;16323;51.130;6.612;2022-11-18T01:33:24;19.00;77.40
29321;DHT22;16323;51.130;6.612;2022-11-18T01:36:13;19.00;77.40
29321;DHT22;16323;51.130;6.612;2022-11-18T01:39:13;19.00;77.40
29321;DHT22;16323;51.130;6.612;2022-11-18T01:41:45;19.00;77.40
29321;DHT22;16323;51.130;6.612;2022-11-18T01:47:16;19.00;77.40
29321;DHT22;16323;51.130;6.612;2022-11-18T01:49:43;19.00;77.30
29321;DHT22;16323;51.130;6.612;2022-11-18T01:52:16;19.00;77.40
29321;DHT22;16323;51.130;6.612;2022-11-18T01:54:56;19.00;77.40
29321;DHT22;16323;51.130;6.612;2022-11-18T01:57:28;19.00;77.40
29321;DHT22;16323;51.130;6.612;2022-11-18T02:00:29;19.00;77.40
29321;DHT22;16323;51.130;6.612;2022-11-18T02:03:30;19.00;77.40
29321;DHT22;16323;51.130;6.612;2022-11-18T02:06:07;19.00;77.40
29321;DHT22;16323;51.130;6.612;2022-11-18T02:08:37;19.00;77.40
29321;DHT22;16323;51.130;6.612;2022-11-18T02:11:18;19.00;77.40
29321;DHT22;16323;51.130;6.612;2022-11-18T02:14:05;19.00;77.40
29321;DHT22;16323;51.130;6.612;2022-11-18T02:16:59;19.00;77.40
29321;DHT22;16323;51.130;6.612;2022-11-18T02:20:04;19.00;77.40
29321;DHT22;16323;51.130;6.612;2022-11-18T02:30:05;19.00;77.40
29321;DHT22;16323;51.130;6.612;2022-11-18T02:32:53;19.00;77.40
29321;DHT22;16323;51.130;6.612;2022-11-18T02:38:49;19.00;77.40
29321;DHT22;16323;51.130;6.612;2022-11-18T02:41:48;19.00;77.40
29321;DHT22;16323;51.130;6.612;2022-11-18T02:44:19;19.00;77.40
29321;DHT22;16323;51.130;6.612;2022-11-18T02:50:22;19.00;77.40
29321;DHT22;16323;51.130;6.612;2022-11-18T02:52:59;19.00;77.40
29321;DHT22;16323;51.130;6.612;2022-11-18T02:55:41;19.00;77.40
29321;DHT22;16323;51.130;6.612;2022-11-18T02:58:26;19.00;77.40
29321;DHT22;16323;51.130;6.612;2022-11-18T03:01:02;19.00;77.40
29321;DHT22;16323;51.130;6.612;2022-11-18T03:03:38;19.00;77.40
29321;DHT22;16323;51.130;6.612;2022-11-18T03:06:18;19.00;78.40
29321;DHT22;16323;51.130;6.612;2022-11-18T03:09:13;19.00;77.20
29321;DHT22;16323;51.130;6.612;2022-11-18T03:12:07;19.00;76.90
29321;DHT22;16323;51.130;6.612;2022-11-18T03:15:15;19.00;77.30
29321;DHT22;16323;51.130;6.612;2022-11-18T03:17:58;19.00;76.90
29321;DHT22;16323;51.130;6.612;2022-11-18T03:21:15;19.00;76.60
29321;DHT22;16323;51.130;6.612;2022-11-18T03:23:56;18.90;76.10
29321;DHT22;16323;51.130;6.612;2022-11-18T03:26:36;19.00;76.00
29321;DHT22;16323;51.130;6.612;2022-11-18T03:29:28;19.00;75.90
29321;DHT22;16323;51.130;6.612;2022-11-18T03:32:00;19.00;75.80
29321;DHT22;16323;51.130;6.612;2022-11-18T03:34:56;19.00;75.80
29321;DHT22;16323;51.130;6.612;2022-11-18T03:37:43;19.00;75.90
29321;DHT22;16323;51.130;6.612;2022-11-18T03:40:23;19.00;76.00
29321;DHT22;16323;51.130;6.612;2022-11-18T03:42:56;19.00;76.10
29321;DHT22;16323;51.130;6.612;2022-11-18T03:45:51;19.00;76.20
29321;DHT22;16323;51.130;6.612;2022-11-18T03:48:55;19.00;76.20
29321;DHT22;16323;51.130;6.612;2022-11-18T03:51:35;19.00;76.40
29321;DHT22;16323;51.130;6.612;2022-11-18T03:54:22;19.00;76.50
29321;DHT22;16323;51.130;6.612;2022-11-18T03:57:10;19.00;76.50
29321;DHT22;16323;51.130;6.612;2022-11-18T03:59:58;19.00;76.50
29321;DHT22;16323;51.130;6.612;2022-11-18T04:02:55;19.00;76.60
29321;DHT22;16323;51.130;6.612;2022-11-18T04:05:34;19.00;76.80
29321;DHT22;16323;51.130;6.612;2022-11-18T04:08:27;19.00;76.80
29321;DHT22;16323;51.130;6.612;2022-11-18T04:11:23;19.00;76.70
29321;DHT22;16323;51.130;6.612;2022-11-18T04:14:13;19.00;77.00
29321;DHT22;16323;51.130;6.612;2022-11-18T04:16:50;19.00;77.10
29321;DHT22;16323;51.130;6.612;2022-11-18T04:19:18;19.00;76.90
29321;DHT22;16323;51.130;6.612;2022-11-18T04:22:03;19.00;77.20
29321;DHT22;16323;51.130;6.612;2022-11-18T04:24:40;19.10;77.00
29321;DHT22;16323;51.130;6.612;2022-11-18T04:27:08;19.10;77.30
29321;DHT22;16323;51.130;6.612;2022-11-18T04:29:35;19.10;77.30
29321;DHT22;16323;51.130;6.612;2022-11-18T04:32:04;19.10;77.10
29321;DHT22;16323;51.130;6.612;2022-11-18T04:34:40;19.10;77.10
29321;DHT22;16323;51.130;6.612;2022-11-18T04:37:17;19.10;77.10
29321;DHT22;16323;51.130;6.612;2022-11-18T04:39:56;19.10;77.20
29321;DHT22;16323;51.130;6.612;2022-11-18T04:42:35;19.10;77.20
29321;DHT22;16323;51.130;6.612;2022-11-18T04:45:19;19.10;77.10
29321;DHT22;16323;51.130;6.612;2022-11-18T04:47:45;19.10;77.10
29321;DHT22;16323;51.130;6.612;2022-11-18T04:50:15;19.10;77.10
29321;DHT22;16323;51.130;6.612;2022-11-18T04:52:59;19.10;77.30
29321;DHT22;16323;51.130;6.612;2022-11-18T04:55:26;19.10;77.10
29321;DHT22;16323;51.130;6.612;2022-11-18T04:57:57;19.10;77.20
29321;DHT22;16323;51.130;6.612;2022-11-18T05:00:24;19.10;77.20
29321;DHT22;16323;51.130;6.612;2022-11-18T05:03:02;19.10;77.50
29321;DHT22;16323;51.130;6.612;2022-11-18T05:05:29;19.10;77.30
29321;DHT22;16323;51.130;6.612;2022-11-18T05:07:56;19.00;77.20
29321;DHT22;16323;51.130;6.612;2022-11-18T05:10:38;19.10;77.30
29321;DHT22;16323;51.130;6.612;2022-11-18T05:13:06;19.10;77.50
29321;DHT22;16323;51.130;6.612;2022-11-18T05:19:02;19.00;77.40
29321;DHT22;16323;51.130;6.612;2022-11-18T05:21:39;19.10;77.50
29321;DHT22;16323;51.130;6.612;2022-11-18T05:24:25;19.10;77.40
29321;DHT22;16323;51.130;6.612;2022-11-18T05:27:05;19.10;77.50
29321;DHT22;16323;51.130;6.612;2022-11-18T05:29:43;19.10;77.50
29321;DHT22;16323;51.130;6.612;2022-11-18T05:32:26;19.10;77.50
29321;DHT22;16323;51.130;6.612;2022-11-18T05:35:04;19.10;77.50
29321;DHT22;16323;51.130;6.612;2022-11-18T05:37:46;19.10;77.50
29321;DHT22;16323;51.130;6.612;2022-11-18T05:40:22;19.10;77.50
29321;DHT22;16323;51.130;6.612;2022-11-18T05:42:49;19.10;77.50
29321;DHT22;16323;51.130;6.612;2022-11-18T05:45:38;19.10;77.40
29321;DHT22;16323;51.130;6.612;2022-11-18T05:48:06;19.10;77.50
29321;DHT22;16323;51.130;6.612;2022-11-18T05:50:36;19.10;77.50
29321;DHT22;16323;51.130;6.612;2022-11-18T05:53:10;19.10;77.50
29321;DHT22;16323;51.130;6.612;2022-11-18T05:56:03;19.10;77.50
29321;DHT22;16323;51.130;6.612;2022-11-18T05:58:46;19.10;77.50
29321;DHT22;16323;51.130;6.612;2022-11-18T06:01:18;19.10;77.50
29321;DHT22;16323;51.130;6.612;2022-11-18T06:04:33;19.10;77.50
29321;DHT22;16323;51.130;6.612;2022-11-18T06:07:14;19.10;77.50
29321;DHT22;16323;51.130;6.612;2022-11-18T06:10:09;19.10;77.50
29321;DHT22;16323;51.130;6.612;2022-11-18T06:12:43;19.10;77.50
29321;DHT22;16323;51.130;6.612;2022-11-18T06:15:18;19.10;77.50
29321;DHT22;16323;51.130;6.612;2022-11-18T06:18:28;19.00;77.40
29321;DHT22;16323;51.130;6.612;2022-11-18T06:21:10;19.10;77.50
29321;DHT22;16323;51.130;6.612;2022-11-18T06:23:39;19.10;77.50
29321;DHT22;16323;51.130;6.612;2022-11-18T06:26:18;19.10;77.50
29321;DHT22;16323;51.130;6.612;2022-11-18T06:28:47;19.10;77.50
29321;DHT22;16323;51.130;6.612;2022-11-18T06:31:32;19.10;77.50
29321;DHT22;16323;51.130;6.612;2022-11-18T06:34:12;19.10;77.50
29321;DHT22;16323;51.130;6.612;2022-11-18T06:36:39;19.10;77.50
29321;DHT22;16323;51.130;6.612;2022-11-18T06:42:32;19.10;77.50
29321;DHT22;16323;51.130;6.612;2022-11-18T06:45:33;19.10;77.50
29321;DHT22;16323;51.130;6.612;2022-11-18T06:48:00;19.10;77.50
29321;DHT22;16323;51.130;6.612;2022-11-18T06:50:34;19.10;77.40
29321;DHT22;16323;51.130;6.612;2022-11-18T06:53:01;19.10;77.50
29321;DHT22;16323;51.130;6.612;2022-11-18T06:55:29;19.10;77.50
29321;DHT22;16323;51.130;6.612;2022-11-18T06:57:56;19.10;77.50
29321;DHT22;16323;51.130;6.612;2022-11-18T07:00:39;19.10;77.50
29321;DHT22;16323;51.130;6.612;2022-11-18T07:06:34;19.00;77.40
29321;DHT22;16323;51.130;6.612;2022-11-18T07:09:36;19.00;77.40
29321;DHT22;16323;51.130;6.612;2022-11-18T07:12:05;19.00;77.40
29321;DHT22;16323;51.130;6.612;2022-11-18T07:14:52;19.00;77.40
29321;DHT22;16323;51.130;6.612;2022-11-18T07:17:19;19.00;77.40
29321;DHT22;16323;51.130;6.612;2022-11-18T07:19:47;19.00;77.30
29321;DHT22;16323;51.130;6.612;2022-11-18T07:22:15;19.00;77.40
29321;DHT22;16323;51.130;6.612;2022-11-18T07:24:49;19.00;77.40
29321;DHT22;16323;51.130;6.612;2022-11-18T07:27:25;19.00;77.40
29321;DHT22;16323;51.130;6.612;2022-11-18T07:29:52;19.00;77.40
29321;DHT22;16323;51.130;6.612;2022-11-18T07:32:32;19.00;77.40
29321;DHT22;16323;51.130;6.612;2022-11-18T07:35:21;19.00;77.40
29321;DHT22;16323;51.130;6.612;2022-11-18T07:37:49;19.00;77.40
29321;DHT22;16323;51.130;6.612;2022-11-18T07:40:16;19.00;77.40
29321;DHT22;16323;51.130;6.612;2022-11-18T07:42:57;19.00;77.40
29321;DHT22;16323;51.130;6.612;2022-11-18T07:45:37;19.00;77.40
29321;DHT22;16323;51.130;6.612;2022-11-18T07:48:04;19.00;77.40
29321;DHT22;16323;51.130;6.612;2022-11-18T07:50:37;19.00;77.40
29321;DHT22;16323;51.130;6.612;2022-11-18T07:53:28;19.00;77.40
29321;DHT22;16323;51.130;6.612;2022-11-18T07:56:19;19.00;77.40
29321;DHT22;16323;51.130;6.612;2022-11-18T07:59:14;19.00;77.40
29321;DHT22;16323;51.130;6.612;2022-11-18T08:01:41;19.00;77.40
29321;DHT22;16323;51.130;6.612;2022-11-18T08:04:14;19.00;77.40
29321;DHT22;16323;51.130;6.612;2022-11-18T08:06:42;19.00;77.40
29321;DHT22;16323;51.130;6.612;2022-11-18T08:09:11;19.00;77.40
29321;DHT22;16323;51.130;6.612;2022-11-18T08:11:37;18.90;77.30
29321;DHT22;16323;51.130;6.612;2022-11-18T08:14:05;18.90;77.30
29321;DHT22;16323;51.130;6.612;2022-11-18T08:16:32;19.00;77.30
29321;DHT22;16323;51.130;6.612;2022-11-18T08:18:59;18.90;77.30
29321;DHT22;16323;51.130;6.612;2022-11-18T08:21:26;19.00;77.30
29321;DHT22;16323;51.130;6.612;2022-11-18T08:23:54;19.00;77.40
29321;DHT22;16323;51.130;6.612;2022-11-18T08:26:23;19.00;77.40
29321;DHT22;16323;51.130;6.612;2022-11-18T08:28:50;19.00;77.40
29321;DHT22;16323;51.130;6.612;2022-11-18T08:31:20;19.00;77.40
29321;DHT22;16323;51.130;6.612;2022-11-18T08:33:47;19.00;77.30
29321;DHT22;16323;51.130;6.612;2022-11-18T08:36:17;19.00;77.30
29321;DHT22;16323;51.130;6.612;2022-11-18T08:38:44;19.00;77.40
29321;DHT22;16323;51.130;6.612;2022-11-18T08:41:11;19.00;77.30
29321;DHT22;16323;51.130;6.612;2022-11-18T08:43:40;19.00;77.40
29321;DHT22;16323;51.130;6.612;2022-11-18T08:46:07;19.00;77.40
29321;DHT22;16323;51.130;6.612;2022-11-18T08:48:34;19.00;77.30
29321;DHT22;16323;51.130;6.612;2022-11-18T08:51:01;19.00;77.30
29321;DHT22;16323;51.130;6.612;2022-11-18T08:53:28;19.00;77.40
29321;DHT22;16323;51.130;6.612;2022-11-18T08:55:55;19.00;77.30
29321;DHT22;16323;51.130;6.612;2022-11-18T08:58:22;19.00;77.40
29321;DHT22;16323;51.130;6.612;2022-11-18T09:00:52;19.00;77.40
29321;DHT22;16323;51.130;6.612;2022-11-18T09:03:18;19.00;77.30
29321;DHT22;16323;51.130;6.612;2022-11-18T09:05:46;19.00;77.40
29321;DHT22;16323;51.130;6.612;2022-11-18T09:08:13;19.00;77.40
29321;DHT22;16323;51.130;6.612;2022-11-18T09:10:40;19.00;77.30
29321;DHT22;16323;51.130;6.612;2022-11-18T09:13:07;19.00;77.30
29321;DHT22;16323;51.130;6.612;2022-11-18T09:15:34;19.00;77.40
29321;DHT22;16323;51.130;6.612;2022-11-18T09:18:03;19.00;77.40
29321;DHT22;16323;51.130;6.612;2022-11-18T09:20:29;19.00;77.40
29321;DHT22;16323;51.130;6.612;2022-11-18T09:22:56;19.00;77.40
29321;DHT22;16323;51.130;6.612;2022-11-18T09:25:24;19.00;77.30
29321;DHT22;16323;51.130;6.612;2022-11-18T09:27:52;19.00;77.20
29321;DHT22;16323;51.130;6.612;2022-11-18T09:30:19;19.00;77.10
29321;DHT22;16323;51.130;6.612;2022-11-18T09:32:46;19.00;78.10
29321;DHT22;16323;51.130;6.612;2022-11-18T09:35:16;19.00;77.00
29321;DHT22;16323;51.130;6.612;2022-11-18T09:37:43;19.00;76.80
29321;DHT22;16323;51.130;6.612;2022-11-18T09:40:12;19.00;76.80
29321;DHT22;16323;51.130;6.612;2022-11-18T09:42:53;19.00;76.80
29321;DHT22;16323;51.130;6.612;2022-11-18T09:45:23;19.00;76.70
29321;DHT22;16323;51.130;6.612;2022-11-18T09:47:56;19.00;76.70
29321;DHT22;16323;51.130;6.612;2022-11-18T09:50:25;19.10;76.80
29321;DHT22;16323;51.130;6.612;2022-11-18T09:53:03;19.00;76.80
29321;DHT22;16323;51.130;6.612;2022-11-18T09:55:35;19.00;77.00
29321;DHT22;16323;51.130;6.612;2022-11-18T09:58:04;19.00;77.00
29321;DHT22;16323;51.130;6.612;2022-11-18T10:00:33;19.00;76.90
29321;DHT22;16323;51.130;6.612;2022-11-18T10:03:02;19.00;77.20
29321;DHT22;16323;51.130;6.612;2022-11-18T10:05:39;19.00;77.30
29321;DHT22;16323;51.130;6.612;2022-11-18T10:08:19;19.00;77.30
29321;DHT22;16323;51.130;6.612;2022-11-18T10:10:53;19.00;77.30
29321;DHT22;16323;51.130;6.612;2022-11-18T10:13:29;19.00;77.40
29321;DHT22;16323;51.130;6.612;2022-11-18T10:16:05;19.00;77.40
29321;DHT22;16323;51.130;6.612;2022-11-18T10:18:43;19.00;77.10
29321;DHT22;16323;51.130;6.612;2022-11-18T10:21:19;19.10;77.50
29321;DHT22;16323;51.130;6.612;2022-11-18T10:23:51;19.10;77.50
29321;DHT22;16323;51.130;6.612;2022-11-18T10:26:32;19.00;77.30
29321;DHT22;16323;51.130;6.612;2022-11-18T10:28:59;19.00;77.00
29321;DHT22;16323;51.130;6.612;2022-11-18T10:31:26;19.10;76.80
29321;DHT22;16323;51.130;6.612;2022-11-18T10:33:57;19.10;77.30
29321;DHT22;16323;51.130;6.612;2022-11-18T10:36:35;19.20;77.50
29321;DHT22;16323;51.130;6.612;2022-11-18T10:39:11;19.20;77.60
29321;DHT22;16323;51.130;6.612;2022-11-18T10:41:43;19.20;77.60
29321;DHT22;16323;51.130;6.612;2022-11-18T10:44:32;19.20;77.50
29321;DHT22;16323;51.130;6.612;2022-11-18T10:47:21;19.20;77.60
29321;DHT22;16323;51.130;6.612;2022-11-18T10:49:49;19.20;77.50
29321;DHT22;16323;51.130;6.612;2022-11-18T10:52:17;19.20;77.50
29321;DHT22;16323;51.130;6.612;2022-11-18T10:54:44;19.20;77.20
29321;DHT22;16323;51.130;6.612;2022-11-18T10:57:17;19.20;77.40
29321;DHT22;16323;51.130;6.612;2022-11-18T10:59:46;19.20;77.10
29321;DHT22;16323;51.130;6.612;2022-11-18T11:02:17;19.30;77.30
29321;DHT22;16323;51.130;6.612;2022-11-18T11:04:46;19.20;77.10
29321;DHT22;16323;51.130;6.612;2022-11-18T11:07:25;19.30;77.10
29321;DHT22;16323;51.130;6.612;2022-11-18T11:10:01;19.20;76.80
29321;DHT22;16323;51.130;6.612;2022-11-18T11:12:41;19.20;77.00
29321;DHT22;16323;51.130;6.612;2022-11-18T11:18:35;19.20;76.30
29321;DHT22;16323;51.130;6.612;2022-11-18T11:21:11;19.20;76.10
29321;DHT22;16323;51.130;6.612;2022-11-18T11:23:39;19.20;75.80
29321;DHT22;16323;51.130;6.612;2022-11-18T11:26:11;19.20;75.60
29321;DHT22;16323;51.130;6.612;2022-11-18T11:32:07;19.20;75.30
29321;DHT22;16323;51.130;6.612;2022-11-18T11:34:41;19.20;75.30
29321;DHT22;16323;51.130;6.612;2022-11-18T11:37:17;19.20;75.70
29321;DHT22;16323;51.130;6.612;2022-11-18T11:39:57;19.20;75.60
29321;DHT22;16323;51.130;6.612;2022-11-18T11:42:38;19.20;75.80
29321;DHT22;16323;51.130;6.612;2022-11-18T11:48:37;19.20;75.80
29321;DHT22;16323;51.130;6.612;2022-11-18T11:51:16;19.20;75.60
29321;DHT22;16323;51.130;6.612;2022-11-18T11:53:52;19.20;76.70
29321;DHT22;16323;51.130;6.612;2022-11-18T11:56:31;19.20;75.10
29321;DHT22;16323;51.130;6.612;2022-11-18T11:59:12;19.20;75.10
29321;DHT22;16323;51.130;6.612;2022-11-18T12:01:55;19.20;75.60
29321;DHT22;16323;51.130;6.612;2022-11-18T12:04:31;19.20;75.60
29321;DHT22;16323;51.130;6.612;2022-11-18T12:07:01;19.20;75.70
29321;DHT22;16323;51.130;6.612;2022-11-18T12:09:38;19.20;75.60
29321;DHT22;16323;51.130;6.612;2022-11-18T12:12:13;19.20;76.70
29321;DHT22;16323;51.130;6.612;2022-11-18T12:18:25;19.10;77.00
29321;DHT22;16323;51.130;6.612;2022-11-18T12:20:53;19.10;77.10
29321;DHT22;16323;51.130;6.612;2022-11-18T12:23:21;19.10;77.00
29321;DHT22;16323;51.130;6.612;2022-11-18T12:26:04;19.10;76.70
29321;DHT22;16323;51.130;6.612;2022-11-18T12:28:35;19.10;76.50
29321;DHT22;16323;51.130;6.612;2022-11-18T12:31:33;19.10;75.90
29321;DHT22;16323;51.130;6.612;2022-11-18T12:34:17;19.10;75.40
29321;DHT22;16323;51.130;6.612;2022-11-18T12:40:07;19.10;76.10
29321;DHT22;16323;51.130;6.612;2022-11-18T12:42:43;19.10;76.30
29321;DHT22;16323;51.130;6.612;2022-11-18T12:45:53;19.20;76.10
29321;DHT22;16323;51.130;6.612;2022-11-18T12:48:33;19.20;77.50
29321;DHT22;16323;51.130;6.612;2022-11-18T12:51:01;19.20;79.10
29321;DHT22;16323;51.130;6.612;2022-11-18T13:00:29;19.10;77.40
